sensor_id;sensor_type;location;lat;lon;timestamp;temperature;humidity
84335;DHT22;74512;51.190;3.198;2024-01-30T00:01:26;10.80;1.00
84335;DHT22;74512;51.190;3.198;2024-01-30T00:03:51;10.80;1.00
84335;DHT22;74512;51.190;3.198;2024-01-30T00:06:20;10.90;1.00
84335;DHT22;74512;51.190;3.198;2024-01-30T00:08:46;10.90;1.00
84335;DHT22;74512;51.190;3.198;2024-01-30T00:11:14;10.90;1.00
84335;DHT22;74512;51.190;3.198;2024-01-30T00:13:40;10.90;1.00
84335;DHT22;74512;51.190;3.198;2024-01-30T00:16:07;10.90;1.00
84335;DHT22;74512;51.190;3.198;2024-01-30T00:18:33;11.00;1.00
84335;DHT22;74512;51.190;3.198;2024-01-30T00:20:59;10.90;1.00
84335;DHT22;74512;51.190;3.198;2024-01-30T00:23:24;10.90;1.00
84335;DHT22;74512;51.190;3.198;2024-01-30T00:25:50;10.80;1.00
84335;DHT22;74512;51.190;3.198;2024-01-30T00:28:16;10.80;1.00
84335;DHT22;74512;51.190;3.198;2024-01-30T00:30:42;10.80;1.00
84335;DHT22;74512;51.190;3.198;2024-01-30T00:33:08;10.80;1.00
84335;DHT22;74512;51.190;3.198;2024-01-30T00:35:34;10.80;1.00
84335;DHT22;74512;51.190;3.198;2024-01-30T00:38:00;10.90;1.00
84335;DHT22;74512;51.190;3.198;2024-01-30T00:40:26;10.80;1.00
84335;DHT22;74512;51.190;3.198;2024-01-30T00:42:52;10.80;1.00
84335;DHT22;74512;51.190;3.198;2024-01-30T00:45:18;10.90;1.00
84335;DHT22;74512;51.190;3.198;2024-01-30T00:47:44;10.90;1.00
84335;DHT22;74512;51.190;3.198;2024-01-30T00:50:09;10.90;1.00
84335;DHT22;74512;51.190;3.198;2024-01-30T00:52:35;10.90;1.00
84335;DHT22;74512;51.190;3.198;2024-01-30T00:55:01;10.90;1.00
84335;DHT22;74512;51.190;3.198;2024-01-30T00:57:28;10.90;1.00
84335;DHT22;74512;51.190;3.198;2024-01-30T00:59:54;10.90;1.00
84335;DHT22;74512;51.190;3.198;2024-01-30T01:02:19;10.90;1.00
84335;DHT22;74512;51.190;3.198;2024-01-30T01:04:45;10.80;1.00
84335;DHT22;74512;51.190;3.198;2024-01-30T01:07:11;10.80;1.00
84335;DHT22;74512;51.190;3.198;2024-01-30T01:09:37;10.90;1.00
84335;DHT22;74512;51.190;3.198;2024-01-30T01:12:03;10.80;1.00
84335;DHT22;74512;51.190;3.198;2024-01-30T01:14:29;10.90;1.00
84335;DHT22;74512;51.190;3.198;2024-01-30T01:16:55;10.90;1.00
84335;DHT22;74512;51.190;3.198;2024-01-30T01:19:21;10.90;1.00
84335;DHT22;74512;51.190;3.198;2024-01-30T01:21:47;11.00;1.00
84335;DHT22;74512;51.190;3.198;2024-01-30T01:24:13;11.00;1.00
84335;DHT22;74512;51.190;3.198;2024-01-30T01:26:39;11.00;1.00
84335;DHT22;74512;51.190;3.198;2024-01-30T01:29:06;11.10;1.00
84335;DHT22;74512;51.190;3.198;2024-01-30T01:31:36;11.00;1.00
84335;DHT22;74512;51.190;3.198;2024-01-30T01:34:06;11.00;1.00
84335;DHT22;74512;51.190;3.198;2024-01-30T01:36:31;11.10;1.00
84335;DHT22;74512;51.190;3.198;2024-01-30T01:38:57;11.10;1.00
84335;DHT22;74512;51.190;3.198;2024-01-30T01:41:23;11.00;1.00
84335;DHT22;74512;51.190;3.198;2024-01-30T01:43:48;11.00;1.00
84335;DHT22;74512;51.190;3.198;2024-01-30T01:46:14;11.00;1.00
84335;DHT22;74512;51.190;3.198;2024-01-30T01:48:41;11.00;1.00
84335;DHT22;74512;51.190;3.198;2024-01-30T01:51:09;10.90;1.00
84335;DHT22;74512;51.190;3.198;2024-01-30T01:53:35;11.00;1.00
84335;DHT22;74512;51.190;3.198;2024-01-30T01:56:01;11.00;1.00
84335;DHT22;74512;51.190;3.198;2024-01-30T01:58:28;11.00;1.00
84335;DHT22;74512;51.190;3.198;2024-01-30T02:00:56;11.00;1.00
84335;DHT22;74512;51.190;3.198;2024-01-30T02:03:22;11.00;1.00
84335;DHT22;74512;51.190;3.198;2024-01-30T02:05:48;11.10;1.00
84335;DHT22;74512;51.190;3.198;2024-01-30T02:08:14;11.20;1.00
84335;DHT22;74512;51.190;3.198;2024-01-30T02:10:40;11.10;1.00
84335;DHT22;74512;51.190;3.198;2024-01-30T02:13:06;11.20;1.00
84335;DHT22;74512;51.190;3.198;2024-01-30T02:15:31;11.10;1.00
84335;DHT22;74512;51.190;3.198;2024-01-30T02:17:57;10.90;1.00
84335;DHT22;74512;51.190;3.198;2024-01-30T02:20:25;11.00;1.00
84335;DHT22;74512;51.190;3.198;2024-01-30T02:22:55;11.10;1.00
84335;DHT22;74512;51.190;3.198;2024-01-30T02:25:39;11.20;1.00
84335;DHT22;74512;51.190;3.198;2024-01-30T02:28:10;11.20;1.00
84335;DHT22;74512;51.190;3.198;2024-01-30T02:30:36;11.20;1.00
84335;DHT22;74512;51.190;3.198;2024-01-30T02:33:02;11.20;1.00
84335;DHT22;74512;51.190;3.198;2024-01-30T02:35:27;11.10;1.00
84335;DHT22;74512;51.190;3.198;2024-01-30T02:37:53;11.10;1.00
84335;DHT22;74512;51.190;3.198;2024-01-30T02:40:19;11.10;1.00
84335;DHT22;74512;51.190;3.198;2024-01-30T02:42:44;11.00;1.00
84335;DHT22;74512;51.190;3.198;2024-01-30T02:45:10;11.10;1.00
84335;DHT22;74512;51.190;3.198;2024-01-30T02:47:36;11.10;1.00
84335;DHT22;74512;51.190;3.198;2024-01-30T02:50:02;11.10;1.00
84335;DHT22;74512;51.190;3.198;2024-01-30T02:52:28;11.10;1.00
84335;DHT22;74512;51.190;3.198;2024-01-30T02:54:53;11.00;1.00
84335;DHT22;74512;51.190;3.198;2024-01-30T02:57:19;11.10;1.00
84335;DHT22;74512;51.190;3.198;2024-01-30T02:59:45;11.10;1.00
84335;DHT22;74512;51.190;3.198;2024-01-30T03:02:10;11.10;1.00
84335;DHT22;74512;51.190;3.198;2024-01-30T03:04:36;11.10;1.00
84335;DHT22;74512;51.190;3.198;2024-01-30T03:07:02;11.10;1.00
84335;DHT22;74512;51.190;3.198;2024-01-30T03:09:27;11.10;1.00
84335;DHT22;74512;51.190;3.198;2024-01-30T03:11:53;11.10;1.00
84335;DHT22;74512;51.190;3.198;2024-01-30T03:14:18;11.20;1.00
84335;DHT22;74512;51.190;3.198;2024-01-30T03:16:44;11.10;1.00
84335;DHT22;74512;51.190;3.198;2024-01-30T03:19:10;11.20;1.00
84335;DHT22;74512;51.190;3.198;2024-01-30T03:21:35;11.30;1.00
84335;DHT22;74512;51.190;3.198;2024-01-30T03:24:01;11.20;1.00
84335;DHT22;74512;51.190;3.198;2024-01-30T03:26:27;11.20;1.00
84335;DHT22;74512;51.190;3.198;2024-01-30T03:28:52;11.10;1.00
84335;DHT22;74512;51.190;3.198;2024-01-30T03:31:18;11.20;1.00
84335;DHT22;74512;51.190;3.198;2024-01-30T03:33:44;11.20;1.00
84335;DHT22;74512;51.190;3.198;2024-01-30T03:36:11;11.10;1.00
84335;DHT22;74512;51.190;3.198;2024-01-30T03:38:37;11.00;1.00
84335;DHT22;74512;51.190;3.198;2024-01-30T03:41:02;10.90;1.00
84335;DHT22;74512;51.190;3.198;2024-01-30T03:43:28;10.90;1.00
84335;DHT22;74512;51.190;3.198;2024-01-30T03:45:54;11.10;1.00
84335;DHT22;74512;51.190;3.198;2024-01-30T03:48:21;11.10;1.00
84335;DHT22;74512;51.190;3.198;2024-01-30T03:50:46;11.10;1.00
84335;DHT22;74512;51.190;3.198;2024-01-30T03:53:12;11.10;1.00
84335;DHT22;74512;51.190;3.198;2024-01-30T03:55:38;11.10;1.00
84335;DHT22;74512;51.190;3.198;2024-01-30T03:58:03;11.10;1.00
84335;DHT22;74512;51.190;3.198;2024-01-30T04:00:29;11.00;1.00
84335;DHT22;74512;51.190;3.198;2024-01-30T04:02:55;11.00;1.00
84335;DHT22;74512;51.190;3.198;2024-01-30T04:05:20;11.00;1.00
84335;DHT22;74512;51.190;3.198;2024-01-30T04:07:46;11.00;1.00
84335;DHT22;74512;51.190;3.198;2024-01-30T04:10:12;11.00;1.00
84335;DHT22;74512;51.190;3.198;2024-01-30T04:12:37;11.00;1.00
84335;DHT22;74512;51.190;3.198;2024-01-30T04:15:03;11.00;1.00
84335;DHT22;74512;51.190;3.198;2024-01-30T04:17:29;11.00;1.00
84335;DHT22;74512;51.190;3.198;2024-01-30T04:19:55;11.00;1.00
84335;DHT22;74512;51.190;3.198;2024-01-30T04:22:21;11.00;1.00
84335;DHT22;74512;51.190;3.198;2024-01-30T04:24:46;11.00;1.00
84335;DHT22;74512;51.190;3.198;2024-01-30T04:27:12;11.00;1.00
84335;DHT22;74512;51.190;3.198;2024-01-30T04:29:38;11.10;1.00
84335;DHT22;74512;51.190;3.198;2024-01-30T04:32:04;11.20;1.00
84335;DHT22;74512;51.190;3.198;2024-01-30T04:34:30;11.20;1.00
84335;DHT22;74512;51.190;3.198;2024-01-30T04:36:55;11.20;1.00
84335;DHT22;74512;51.190;3.198;2024-01-30T04:39:21;11.20;1.00
84335;DHT22;74512;51.190;3.198;2024-01-30T04:41:47;11.20;1.00
84335;DHT22;74512;51.190;3.198;2024-01-30T04:44:13;11.30;1.00
84335;DHT22;74512;51.190;3.198;2024-01-30T04:46:39;11.30;1.00
84335;DHT22;74512;51.190;3.198;2024-01-30T04:49:05;11.30;1.00
84335;DHT22;74512;51.190;3.198;2024-01-30T04:51:33;11.40;1.00
84335;DHT22;74512;51.190;3.198;2024-01-30T04:53:58;11.20;1.00
84335;DHT22;74512;51.190;3.198;2024-01-30T04:56:24;11.20;1.00
84335;DHT22;74512;51.190;3.198;2024-01-30T04:58:50;11.20;1.00
84335;DHT22;74512;51.190;3.198;2024-01-30T05:01:16;11.20;1.00
84335;DHT22;74512;51.190;3.198;2024-01-30T05:03:42;11.20;1.00
84335;DHT22;74512;51.190;3.198;2024-01-30T05:06:07;11.20;1.00
84335;DHT22;74512;51.190;3.198;2024-01-30T05:08:33;11.20;1.00
84335;DHT22;74512;51.190;3.198;2024-01-30T05:11:02;11.20;1.00
84335;DHT22;74512;51.190;3.198;2024-01-30T05:13:30;11.30;1.00
84335;DHT22;74512;51.190;3.198;2024-01-30T05:15:55;11.30;1.00
84335;DHT22;74512;51.190;3.198;2024-01-30T05:18:21;11.20;1.00
84335;DHT22;74512;51.190;3.198;2024-01-30T05:20:47;11.20;1.00
84335;DHT22;74512;51.190;3.198;2024-01-30T05:23:12;11.20;1.00
84335;DHT22;74512;51.190;3.198;2024-01-30T05:25:38;11.30;1.00
84335;DHT22;74512;51.190;3.198;2024-01-30T05:28:04;11.30;1.00
84335;DHT22;74512;51.190;3.198;2024-01-30T05:30:30;11.20;1.00
84335;DHT22;74512;51.190;3.198;2024-01-30T05:32:55;11.30;1.00
84335;DHT22;74512;51.190;3.198;2024-01-30T05:35:21;11.20;1.00
84335;DHT22;74512;51.190;3.198;2024-01-30T05:37:48;11.20;1.00
84335;DHT22;74512;51.190;3.198;2024-01-30T05:40:14;11.20;1.00
84335;DHT22;74512;51.190;3.198;2024-01-30T05:42:40;11.20;1.00
84335;DHT22;74512;51.190;3.198;2024-01-30T05:45:06;11.20;1.00
84335;DHT22;74512;51.190;3.198;2024-01-30T05:47:32;11.20;1.00
84335;DHT22;74512;51.190;3.198;2024-01-30T05:49:57;11.20;1.00
84335;DHT22;74512;51.190;3.198;2024-01-30T05:52:23;11.20;1.00
84335;DHT22;74512;51.190;3.198;2024-01-30T05:54:49;11.20;1.00
84335;DHT22;74512;51.190;3.198;2024-01-30T05:57:14;11.20;1.00
84335;DHT22;74512;51.190;3.198;2024-01-30T05:59:40;11.20;1.00
84335;DHT22;74512;51.190;3.198;2024-01-30T06:02:06;11.20;1.00
84335;DHT22;74512;51.190;3.198;2024-01-30T06:04:31;11.30;1.00
84335;DHT22;74512;51.190;3.198;2024-01-30T06:06:57;11.30;1.00
84335;DHT22;74512;51.190;3.198;2024-01-30T06:09:22;11.30;1.00
84335;DHT22;74512;51.190;3.198;2024-01-30T06:11:48;11.30;1.00
84335;DHT22;74512;51.190;3.198;2024-01-30T06:14:14;11.40;1.00
84335;DHT22;74512;51.190;3.198;2024-01-30T06:16:39;11.40;1.00
84335;DHT22;74512;51.190;3.198;2024-01-30T06:19:05;11.30;1.00
84335;DHT22;74512;51.190;3.198;2024-01-30T06:21:31;11.30;1.00
84335;DHT22;74512;51.190;3.198;2024-01-30T06:23:57;11.20;1.00
84335;DHT22;74512;51.190;3.198;2024-01-30T06:26:23;11.20;1.00
84335;DHT22;74512;51.190;3.198;2024-01-30T06:28:48;11.20;1.00
84335;DHT22;74512;51.190;3.198;2024-01-30T06:31:14;11.20;1.00
84335;DHT22;74512;51.190;3.198;2024-01-30T06:33:40;11.20;1.00
84335;DHT22;74512;51.190;3.198;2024-01-30T06:36:07;11.20;1.00
84335;DHT22;74512;51.190;3.198;2024-01-30T06:38:33;11.20;1.00
84335;DHT22;74512;51.190;3.198;2024-01-30T06:40:59;11.10;1.00
84335;DHT22;74512;51.190;3.198;2024-01-30T06:43:24;11.10;1.00
84335;DHT22;74512;51.190;3.198;2024-01-30T06:45:50;11.10;1.00
84335;DHT22;74512;51.190;3.198;2024-01-30T06:48:17;11.10;1.00
84335;DHT22;74512;51.190;3.198;2024-01-30T06:50:42;11.10;1.00
84335;DHT22;74512;51.190;3.198;2024-01-30T06:53:08;11.10;1.00
84335;DHT22;74512;51.190;3.198;2024-01-30T06:55:34;11.10;1.00
84335;DHT22;74512;51.190;3.198;2024-01-30T06:57:59;11.20;1.00
84335;DHT22;74512;51.190;3.198;2024-01-30T07:00:25;11.20;1.00
84335;DHT22;74512;51.190;3.198;2024-01-30T07:02:51;11.20;1.00
84335;DHT22;74512;51.190;3.198;2024-01-30T07:05:16;11.10;1.00
84335;DHT22;74512;51.190;3.198;2024-01-30T07:07:43;11.20;1.00
84335;DHT22;74512;51.190;3.198;2024-01-30T07:10:08;11.30;1.00
84335;DHT22;74512;51.190;3.198;2024-01-30T07:12:34;11.30;1.00
84335;DHT22;74512;51.190;3.198;2024-01-30T07:15:00;11.20;1.00
84335;DHT22;74512;51.190;3.198;2024-01-30T07:17:26;11.20;1.00
84335;DHT22;74512;51.190;3.198;2024-01-30T07:19:52;11.30;1.00
84335;DHT22;74512;51.190;3.198;2024-01-30T07:22:17;11.20;1.00
84335;DHT22;74512;51.190;3.198;2024-01-30T07:24:43;11.20;1.00
84335;DHT22;74512;51.190;3.198;2024-01-30T07:27:14;11.20;1.00
84335;DHT22;74512;51.190;3.198;2024-01-30T07:29:41;11.30;1.00
84335;DHT22;74512;51.190;3.198;2024-01-30T07:32:07;11.30;1.00
84335;DHT22;74512;51.190;3.198;2024-01-30T07:34:32;11.20;1.00
84335;DHT22;74512;51.190;3.198;2024-01-30T07:36:58;11.30;1.00
84335;DHT22;74512;51.190;3.198;2024-01-30T07:39:23;11.30;1.00
84335;DHT22;74512;51.190;3.198;2024-01-30T07:41:49;11.30;1.00
84335;DHT22;74512;51.190;3.198;2024-01-30T07:44:15;11.30;1.00
84335;DHT22;74512;51.190;3.198;2024-01-30T07:46:41;11.30;1.00
84335;DHT22;74512;51.190;3.198;2024-01-30T07:49:06;11.20;1.00
84335;DHT22;74512;51.190;3.198;2024-01-30T07:51:32;11.30;1.00
84335;DHT22;74512;51.190;3.198;2024-01-30T07:53:58;11.30;1.00
84335;DHT22;74512;51.190;3.198;2024-01-30T07:56:24;11.30;1.00
84335;DHT22;74512;51.190;3.198;2024-01-30T07:58:50;11.30;1.00
84335;DHT22;74512;51.190;3.198;2024-01-30T08:01:16;11.30;1.00
84335;DHT22;74512;51.190;3.198;2024-01-30T08:03:41;11.30;1.00
84335;DHT22;74512;51.190;3.198;2024-01-30T08:06:07;11.30;1.00
84335;DHT22;74512;51.190;3.198;2024-01-30T08:08:33;11.30;1.00
84335;DHT22;74512;51.190;3.198;2024-01-30T08:10:59;11.20;1.00
84335;DHT22;74512;51.190;3.198;2024-01-30T08:13:24;11.20;1.00
84335;DHT22;74512;51.190;3.198;2024-01-30T08:15:50;11.10;1.00
84335;DHT22;74512;51.190;3.198;2024-01-30T08:18:16;11.10;1.00
84335;DHT22;74512;51.190;3.198;2024-01-30T08:20:41;11.10;1.00
84335;DHT22;74512;51.190;3.198;2024-01-30T08:23:08;11.10;1.00
84335;DHT22;74512;51.190;3.198;2024-01-30T08:25:33;11.00;1.00
84335;DHT22;74512;51.190;3.198;2024-01-30T08:27:59;11.00;1.00
84335;DHT22;74512;51.190;3.198;2024-01-30T08:30:25;11.00;1.00
84335;DHT22;74512;51.190;3.198;2024-01-30T08:32:51;11.10;1.00
84335;DHT22;74512;51.190;3.198;2024-01-30T08:35:17;11.20;1.00
84335;DHT22;74512;51.190;3.198;2024-01-30T08:37:43;11.10;1.00
84335;DHT22;74512;51.190;3.198;2024-01-30T08:40:08;11.10;1.00
84335;DHT22;74512;51.190;3.198;2024-01-30T08:42:34;11.00;1.00
84335;DHT22;74512;51.190;3.198;2024-01-30T08:45:00;11.10;1.00
84335;DHT22;74512;51.190;3.198;2024-01-30T08:47:25;11.10;1.00
84335;DHT22;74512;51.190;3.198;2024-01-30T08:49:51;11.10;1.00
84335;DHT22;74512;51.190;3.198;2024-01-30T08:52:17;11.20;1.00
84335;DHT22;74512;51.190;3.198;2024-01-30T08:54:43;11.30;1.00
84335;DHT22;74512;51.190;3.198;2024-01-30T08:57:08;11.20;1.00
84335;DHT22;74512;51.190;3.198;2024-01-30T08:59:34;11.10;1.00
84335;DHT22;74512;51.190;3.198;2024-01-30T09:02:00;11.00;1.00
84335;DHT22;74512;51.190;3.198;2024-01-30T09:04:25;11.00;1.00
84335;DHT22;74512;51.190;3.198;2024-01-30T09:06:51;11.00;1.00
84335;DHT22;74512;51.190;3.198;2024-01-30T09:09:17;11.10;1.00
84335;DHT22;74512;51.190;3.198;2024-01-30T09:11:43;11.10;1.00
84335;DHT22;74512;51.190;3.198;2024-01-30T09:14:09;11.10;1.00
84335;DHT22;74512;51.190;3.198;2024-01-30T09:16:34;11.10;1.00
84335;DHT22;74512;51.190;3.198;2024-01-30T09:19:00;11.10;1.00
84335;DHT22;74512;51.190;3.198;2024-01-30T09:21:26;11.10;1.00
84335;DHT22;74512;51.190;3.198;2024-01-30T09:23:54;11.10;1.00
84335;DHT22;74512;51.190;3.198;2024-01-30T09:26:20;11.10;1.00
84335;DHT22;74512;51.190;3.198;2024-01-30T09:28:45;11.20;1.00
84335;DHT22;74512;51.190;3.198;2024-01-30T09:31:12;11.10;1.00
84335;DHT22;74512;51.190;3.198;2024-01-30T09:33:38;10.90;1.00
84335;DHT22;74512;51.190;3.198;2024-01-30T09:36:05;10.90;1.00
84335;DHT22;74512;51.190;3.198;2024-01-30T09:38:31;10.90;1.00
84335;DHT22;74512;51.190;3.198;2024-01-30T09:41:02;11.00;1.00
84335;DHT22;74512;51.190;3.198;2024-01-30T09:43:32;11.00;1.00
84335;DHT22;74512;51.190;3.198;2024-01-30T09:46:00;10.90;1.00
84335;DHT22;74512;51.190;3.198;2024-01-30T09:48:29;11.00;1.00
84335;DHT22;74512;51.190;3.198;2024-01-30T09:50:57;11.10;1.00
84335;DHT22;74512;51.190;3.198;2024-01-30T09:53:23;11.10;1.00
84335;DHT22;74512;51.190;3.198;2024-01-30T09:55:50;11.00;1.00
84335;DHT22;74512;51.190;3.198;2024-01-30T09:58:16;11.00;1.00
84335;DHT22;74512;51.190;3.198;2024-01-30T10:00:42;11.00;1.00
84335;DHT22;74512;51.190;3.198;2024-01-30T10:03:08;10.90;1.00
84335;DHT22;74512;51.190;3.198;2024-01-30T10:05:35;11.00;1.00
84335;DHT22;74512;51.190;3.198;2024-01-30T10:08:06;11.00;1.00
84335;DHT22;74512;51.190;3.198;2024-01-30T10:10:34;11.00;1.00
84335;DHT22;74512;51.190;3.198;2024-01-30T10:13:00;11.00;1.00
84335;DHT22;74512;51.190;3.198;2024-01-30T10:15:28;10.90;1.00
84335;DHT22;74512;51.190;3.198;2024-01-30T10:17:54;10.80;1.00
84335;DHT22;74512;51.190;3.198;2024-01-30T10:20:19;10.80;1.00
84335;DHT22;74512;51.190;3.198;2024-01-30T10:22:48;10.90;1.00
84335;DHT22;74512;51.190;3.198;2024-01-30T10:25:15;10.90;1.00
84335;DHT22;74512;51.190;3.198;2024-01-30T10:27:40;11.00;1.00
84335;DHT22;74512;51.190;3.198;2024-01-30T10:30:07;10.90;1.00
84335;DHT22;74512;51.190;3.198;2024-01-30T10:32:33;10.80;1.00
84335;DHT22;74512;51.190;3.198;2024-01-30T10:34:59;11.00;1.00
84335;DHT22;74512;51.190;3.198;2024-01-30T10:37:25;10.90;1.00
84335;DHT22;74512;51.190;3.198;2024-01-30T10:39:53;10.80;1.00
84335;DHT22;74512;51.190;3.198;2024-01-30T10:42:25;10.80;1.00
84335;DHT22;74512;51.190;3.198;2024-01-30T10:47:35;10.90;1.00
84335;DHT22;74512;51.190;3.198;2024-01-30T10:50:02;10.90;1.00
84335;DHT22;74512;51.190;3.198;2024-01-30T10:52:29;10.90;1.00
84335;DHT22;74512;51.190;3.198;2024-01-30T10:54:56;10.80;1.00
84335;DHT22;74512;51.190;3.198;2024-01-30T10:57:23;10.80;1.00
84335;DHT22;74512;51.190;3.198;2024-01-30T10:59:53;10.90;1.00
84335;DHT22;74512;51.190;3.198;2024-01-30T11:02:20;10.80;1.00
84335;DHT22;74512;51.190;3.198;2024-01-30T11:04:47;10.70;1.00
84335;DHT22;74512;51.190;3.198;2024-01-30T11:07:17;10.70;1.00
84335;DHT22;74512;51.190;3.198;2024-01-30T11:12:26;10.80;1.00
84335;DHT22;74512;51.190;3.198;2024-01-30T11:15:10;10.70;1.00
84335;DHT22;74512;51.190;3.198;2024-01-30T11:17:42;10.70;1.00
84335;DHT22;74512;51.190;3.198;2024-01-30T11:20:22;10.80;1.00
84335;DHT22;74512;51.190;3.198;2024-01-30T11:22:50;10.70;1.00
84335;DHT22;74512;51.190;3.198;2024-01-30T11:25:19;10.70;1.00
84335;DHT22;74512;51.190;3.198;2024-01-30T11:27:46;10.60;1.00
84335;DHT22;74512;51.190;3.198;2024-01-30T11:30:31;10.70;1.00
84335;DHT22;74512;51.190;3.198;2024-01-30T11:35:35;10.60;1.00
84335;DHT22;74512;51.190;3.198;2024-01-30T11:38:03;10.60;1.00
84335;DHT22;74512;51.190;3.198;2024-01-30T11:40:29;10.60;1.00
84335;DHT22;74512;51.190;3.198;2024-01-30T11:42:59;10.60;1.00
84335;DHT22;74512;51.190;3.198;2024-01-30T11:45:26;10.60;1.00
84335;DHT22;74512;51.190;3.198;2024-01-30T11:47:53;10.50;1.00
84335;DHT22;74512;51.190;3.198;2024-01-30T11:50:19;10.60;1.00
84335;DHT22;74512;51.190;3.198;2024-01-30T11:52:44;10.60;1.00
84335;DHT22;74512;51.190;3.198;2024-01-30T11:55:10;10.60;1.00
84335;DHT22;74512;51.190;3.198;2024-01-30T11:57:36;10.50;1.00
84335;DHT22;74512;51.190;3.198;2024-01-30T12:00:05;10.50;1.00
84335;DHT22;74512;51.190;3.198;2024-01-30T12:02:42;10.50;1.00
84335;DHT22;74512;51.190;3.198;2024-01-30T12:05:08;10.50;1.00
84335;DHT22;74512;51.190;3.198;2024-01-30T12:07:34;10.50;1.00
84335;DHT22;74512;51.190;3.198;2024-01-30T12:10:00;10.50;1.00
84335;DHT22;74512;51.190;3.198;2024-01-30T12:12:27;10.60;1.00
84335;DHT22;74512;51.190;3.198;2024-01-30T12:14:56;10.60;1.00
84335;DHT22;74512;51.190;3.198;2024-01-30T12:17:28;10.60;1.00
84335;DHT22;74512;51.190;3.198;2024-01-30T12:20:08;10.60;1.00
84335;DHT22;74512;51.190;3.198;2024-01-30T12:22:37;10.50;1.00
84335;DHT22;74512;51.190;3.198;2024-01-30T12:25:09;10.60;1.00
84335;DHT22;74512;51.190;3.198;2024-01-30T12:27:36;10.50;1.00
84335;DHT22;74512;51.190;3.198;2024-01-30T12:30:05;10.50;1.00
84335;DHT22;74512;51.190;3.198;2024-01-30T12:32:31;10.60;1.00
84335;DHT22;74512;51.190;3.198;2024-01-30T12:34:57;10.50;1.00
84335;DHT22;74512;51.190;3.198;2024-01-30T12:37:23;10.60;1.00
84335;DHT22;74512;51.190;3.198;2024-01-30T12:39:53;10.70;1.00
84335;DHT22;74512;51.190;3.198;2024-01-30T12:42:20;10.70;1.00
84335;DHT22;74512;51.190;3.198;2024-01-30T12:44:47;10.70;1.00
84335;DHT22;74512;51.190;3.198;2024-01-30T12:47:12;10.70;1.00
84335;DHT22;74512;51.190;3.198;2024-01-30T12:49:38;10.70;1.00
84335;DHT22;74512;51.190;3.198;2024-01-30T12:52:04;10.70;1.00
84335;DHT22;74512;51.190;3.198;2024-01-30T12:54:30;10.70;1.00
84335;DHT22;74512;51.190;3.198;2024-01-30T12:56:55;10.60;1.00
84335;DHT22;74512;51.190;3.198;2024-01-30T12:59:21;10.70;1.00
84335;DHT22;74512;51.190;3.198;2024-01-30T13:01:47;10.70;1.00
84335;DHT22;74512;51.190;3.198;2024-01-30T13:04:13;10.60;1.00
84335;DHT22;74512;51.190;3.198;2024-01-30T13:06:40;10.60;1.00
84335;DHT22;74512;51.190;3.198;2024-01-30T13:09:06;10.60;1.00
84335;DHT22;74512;51.190;3.198;2024-01-30T13:11:31;10.60;1.00
84335;DHT22;74512;51.190;3.198;2024-01-30T13:13:57;10.50;1.00
84335;DHT22;74512;51.190;3.198;2024-01-30T13:16:23;10.40;1.00
84335;DHT22;74512;51.190;3.198;2024-01-30T13:18:48;10.40;1.00
84335;DHT22;74512;51.190;3.198;2024-01-30T13:21:15;10.40;1.00
84335;DHT22;74512;51.190;3.198;2024-01-30T13:23:40;10.40;1.00
84335;DHT22;74512;51.190;3.198;2024-01-30T13:26:06;10.40;1.00
84335;DHT22;74512;51.190;3.198;2024-01-30T13:28:32;10.40;1.00
84335;DHT22;74512;51.190;3.198;2024-01-30T13:30:58;10.50;1.00
84335;DHT22;74512;51.190;3.198;2024-01-30T13:33:25;10.50;1.00
84335;DHT22;74512;51.190;3.198;2024-01-30T13:35:51;10.50;1.00
84335;DHT22;74512;51.190;3.198;2024-01-30T13:38:17;10.40;1.00
84335;DHT22;74512;51.190;3.198;2024-01-30T13:40:42;10.30;1.00
84335;DHT22;74512;51.190;3.198;2024-01-30T13:43:08;10.30;1.00
84335;DHT22;74512;51.190;3.198;2024-01-30T13:45:34;10.20;1.00
84335;DHT22;74512;51.190;3.198;2024-01-30T13:47:59;10.20;1.00
84335;DHT22;74512;51.190;3.198;2024-01-30T13:50:25;10.40;1.00
84335;DHT22;74512;51.190;3.198;2024-01-30T13:52:51;10.40;1.00
84335;DHT22;74512;51.190;3.198;2024-01-30T13:55:16;10.40;1.00
84335;DHT22;74512;51.190;3.198;2024-01-30T13:57:42;10.30;1.00
84335;DHT22;74512;51.190;3.198;2024-01-30T14:00:08;10.40;1.00
84335;DHT22;74512;51.190;3.198;2024-01-30T14:02:34;10.40;1.00
84335;DHT22;74512;51.190;3.198;2024-01-30T14:05:00;10.30;1.00
84335;DHT22;74512;51.190;3.198;2024-01-30T14:07:25;10.20;1.00
84335;DHT22;74512;51.190;3.198;2024-01-30T14:09:51;10.20;1.00
84335;DHT22;74512;51.190;3.198;2024-01-30T14:12:17;10.20;1.00
84335;DHT22;74512;51.190;3.198;2024-01-30T14:14:42;10.40;1.00
84335;DHT22;74512;51.190;3.198;2024-01-30T14:17:08;10.40;1.00
84335;DHT22;74512;51.190;3.198;2024-01-30T14:19:35;10.20;1.00
84335;DHT22;74512;51.190;3.198;2024-01-30T14:22:01;10.20;1.00
84335;DHT22;74512;51.190;3.198;2024-01-30T14:24:27;10.30;1.00
84335;DHT22;74512;51.190;3.198;2024-01-30T14:26:53;10.30;1.00
84335;DHT22;74512;51.190;3.198;2024-01-30T14:29:19;10.40;1.00
84335;DHT22;74512;51.190;3.198;2024-01-30T14:31:44;10.40;1.00
84335;DHT22;74512;51.190;3.198;2024-01-30T14:34:10;10.30;1.00
84335;DHT22;74512;51.190;3.198;2024-01-30T14:36:39;10.30;1.00
84335;DHT22;74512;51.190;3.198;2024-01-30T14:39:05;10.50;1.00
84335;DHT22;74512;51.190;3.198;2024-01-30T14:41:32;10.40;1.00
84335;DHT22;74512;51.190;3.198;2024-01-30T14:43:58;10.40;1.00
84335;DHT22;74512;51.190;3.198;2024-01-30T14:46:24;10.30;1.00
84335;DHT22;74512;51.190;3.198;2024-01-30T14:48:49;10.30;1.00
84335;DHT22;74512;51.190;3.198;2024-01-30T14:51:17;10.40;1.00
84335;DHT22;74512;51.190;3.198;2024-01-30T14:53:43;10.40;1.00
84335;DHT22;74512;51.190;3.198;2024-01-30T14:56:09;10.40;1.00
84335;DHT22;74512;51.190;3.198;2024-01-30T14:58:36;10.40;1.00
84335;DHT22;74512;51.190;3.198;2024-01-30T15:01:02;10.50;1.00
84335;DHT22;74512;51.190;3.198;2024-01-30T15:03:28;10.60;1.00
84335;DHT22;74512;51.190;3.198;2024-01-30T15:05:54;10.50;1.00
84335;DHT22;74512;51.190;3.198;2024-01-30T15:08:21;10.60;1.00
84335;DHT22;74512;51.190;3.198;2024-01-30T15:10:47;10.60;1.00
84335;DHT22;74512;51.190;3.198;2024-01-30T15:13:12;10.60;1.00
84335;DHT22;74512;51.190;3.198;2024-01-30T15:15:38;10.60;1.00
84335;DHT22;74512;51.190;3.198;2024-01-30T15:18:04;10.60;1.00
84335;DHT22;74512;51.190;3.198;2024-01-30T15:20:30;10.70;1.00
84335;DHT22;74512;51.190;3.198;2024-01-30T15:22:57;10.60;1.00
84335;DHT22;74512;51.190;3.198;2024-01-30T15:25:22;10.60;1.00
84335;DHT22;74512;51.190;3.198;2024-01-30T15:27:48;10.50;1.00
84335;DHT22;74512;51.190;3.198;2024-01-30T15:30:14;10.50;1.00
84335;DHT22;74512;51.190;3.198;2024-01-30T15:32:40;10.60;1.00
84335;DHT22;74512;51.190;3.198;2024-01-30T15:35:06;10.60;1.00
84335;DHT22;74512;51.190;3.198;2024-01-30T15:37:32;10.40;1.00
84335;DHT22;74512;51.190;3.198;2024-01-30T15:39:58;10.60;1.00
84335;DHT22;74512;51.190;3.198;2024-01-30T15:42:23;10.60;1.00
84335;DHT22;74512;51.190;3.198;2024-01-30T15:44:49;10.60;1.00
84335;DHT22;74512;51.190;3.198;2024-01-30T15:47:15;10.60;1.00